sensor_id;sensor_type;location;lat;lon;timestamp;P1;durP1;ratioP1;P2;durP2;ratioP2
3417;SDS011;68007;51.312;12.372;2023-06-19T00:02:17;7.80;;;6.40;;
3417;SDS011;68007;51.312;12.372;2023-06-19T00:04:45;9.23;;;6.13;;
3417;SDS011;68007;51.312;12.372;2023-06-19T00:07:12;8.43;;;6.60;;
3417;SDS011;68007;51.312;12.372;2023-06-19T00:09:40;6.60;;;6.00;;
3417;SDS011;68007;51.312;12.372;2023-06-19T00:12:09;7.80;;;6.67;;
3417;SDS011;68007;51.312;12.372;2023-06-19T00:14:37;7.60;;;6.77;;
3417;SDS011;68007;51.312;12.372;2023-06-19T00:17:05;7.53;;;6.73;;
3417;SDS011;68007;51.312;12.372;2023-06-19T00:19:32;10.23;;;6.67;;
3417;SDS011;68007;51.312;12.372;2023-06-19T00:22:01;8.70;;;6.40;;
3417;SDS011;68007;51.312;12.372;2023-06-19T00:24:29;8.27;;;6.63;;
3417;SDS011;68007;51.312;12.372;2023-06-19T00:26:57;12.33;;;6.60;;
3417;SDS011;68007;51.312;12.372;2023-06-19T00:29:29;8.70;;;7.00;;
3417;SDS011;68007;51.312;12.372;2023-06-19T00:31:57;9.50;;;6.67;;
3417;SDS011;68007;51.312;12.372;2023-06-19T00:34:25;8.27;;;6.60;;
3417;SDS011;68007;51.312;12.372;2023-06-19T00:36:53;6.83;;;6.13;;
3417;SDS011;68007;51.312;12.372;2023-06-19T00:39:22;7.23;;;6.53;;
3417;SDS011;68007;51.312;12.372;2023-06-19T00:41:49;7.83;;;7.03;;
3417;SDS011;68007;51.312;12.372;2023-06-19T00:44:18;6.70;;;5.83;;
3417;SDS011;68007;51.312;12.372;2023-06-19T00:46:47;8.50;;;7.10;;
3417;SDS011;68007;51.312;12.372;2023-06-19T00:49:22;7.30;;;6.53;;
3417;SDS011;68007;51.312;12.372;2023-06-19T00:51:50;7.13;;;6.00;;
3417;SDS011;68007;51.312;12.372;2023-06-19T00:54:19;7.97;;;6.13;;
3417;SDS011;68007;51.312;12.372;2023-06-19T00:56:46;7.07;;;6.37;;
3417;SDS011;68007;51.312;12.372;2023-06-19T00:59:15;7.43;;;6.20;;
3417;SDS011;68007;51.312;12.372;2023-06-19T01:01:43;8.00;;;6.40;;
3417;SDS011;68007;51.312;12.372;2023-06-19T01:04:13;10.43;;;7.20;;
3417;SDS011;68007;51.312;12.372;2023-06-19T01:06:42;7.30;;;6.60;;
3417;SDS011;68007;51.312;12.372;2023-06-19T01:09:16;8.10;;;6.40;;
3417;SDS011;68007;51.312;12.372;2023-06-19T01:11:46;7.30;;;6.07;;
3417;SDS011;68007;51.312;12.372;2023-06-19T01:14:18;7.13;;;6.43;;
3417;SDS011;68007;51.312;12.372;2023-06-19T01:16:48;7.80;;;6.30;;
3417;SDS011;68007;51.312;12.372;2023-06-19T01:19:19;6.67;;;5.97;;
3417;SDS011;68007;51.312;12.372;2023-06-19T01:21:47;8.00;;;6.00;;
3417;SDS011;68007;51.312;12.372;2023-06-19T01:24:17;6.60;;;6.00;;
3417;SDS011;68007;51.312;12.372;2023-06-19T01:26:44;8.33;;;6.87;;
3417;SDS011;68007;51.312;12.372;2023-06-19T01:29:13;7.20;;;6.17;;
3417;SDS011;68007;51.312;12.372;2023-06-19T01:31:43;9.27;;;6.77;;
3417;SDS011;68007;51.312;12.372;2023-06-19T01:34:16;6.90;;;6.13;;
3417;SDS011;68007;51.312;12.372;2023-06-19T01:36:46;6.83;;;6.13;;
3417;SDS011;68007;51.312;12.372;2023-06-19T01:39:17;9.80;;;6.67;;
3417;SDS011;68007;51.312;12.372;2023-06-19T01:41:45;7.77;;;6.43;;
3417;SDS011;68007;51.312;12.372;2023-06-19T01:44:14;8.93;;;6.80;;
3417;SDS011;68007;51.312;12.372;2023-06-19T01:46:42;8.63;;;6.17;;
3417;SDS011;68007;51.312;12.372;2023-06-19T01:49:09;6.93;;;6.17;;
3417;SDS011;68007;51.312;12.372;2023-06-19T01:51:37;8.50;;;6.83;;
3417;SDS011;68007;51.312;12.372;2023-06-19T01:54:04;7.67;;;6.97;;
3417;SDS011;68007;51.312;12.372;2023-06-19T01:56:33;10.40;;;6.70;;
3417;SDS011;68007;51.312;12.372;2023-06-19T01:59:02;7.43;;;6.57;;
3417;SDS011;68007;51.312;12.372;2023-06-19T02:01:29;7.33;;;6.53;;
3417;SDS011;68007;51.312;12.372;2023-06-19T02:03:57;8.47;;;6.17;;
3417;SDS011;68007;51.312;12.372;2023-06-19T02:06:24;9.70;;;6.73;;
3417;SDS011;68007;51.312;12.372;2023-06-19T02:08:52;7.93;;;7.13;;
3417;SDS011;68007;51.312;12.372;2023-06-19T02:11:19;9.30;;;7.40;;
3417;SDS011;68007;51.312;12.372;2023-06-19T02:13:48;8.83;;;7.30;;
3417;SDS011;68007;51.312;12.372;2023-06-19T02:16:16;7.70;;;6.87;;
3417;SDS011;68007;51.312;12.372;2023-06-19T02:18:43;8.00;;;7.20;;
3417;SDS011;68007;51.312;12.372;2023-06-19T02:21:11;7.97;;;7.17;;
3417;SDS011;68007;51.312;12.372;2023-06-19T02:23:38;7.67;;;6.70;;
3417;SDS011;68007;51.312;12.372;2023-06-19T02:26:06;6.80;;;6.00;;
3417;SDS011;68007;51.312;12.372;2023-06-19T02:28:33;7.83;;;7.03;;
3417;SDS011;68007;51.312;12.372;2023-06-19T02:31:02;7.30;;;6.60;;
3417;SDS011;68007;51.312;12.372;2023-06-19T02:33:30;9.30;;;6.73;;
3417;SDS011;68007;51.312;12.372;2023-06-19T02:35:58;8.70;;;6.90;;
3417;SDS011;68007;51.312;12.372;2023-06-19T02:38:27;10.57;;;7.30;;
3417;SDS011;68007;51.312;12.372;2023-06-19T02:40:55;7.17;;;6.47;;
3417;SDS011;68007;51.312;12.372;2023-06-19T02:43:26;7.60;;;6.80;;
3417;SDS011;68007;51.312;12.372;2023-06-19T02:45:53;9.53;;;7.27;;
3417;SDS011;68007;51.312;12.372;2023-06-19T02:48:22;8.90;;;7.10;;
3417;SDS011;68007;51.312;12.372;2023-06-19T02:50:50;10.17;;;6.43;;
3417;SDS011;68007;51.312;12.372;2023-06-19T02:53:17;8.07;;;6.77;;
3417;SDS011;68007;51.312;12.372;2023-06-19T02:55:44;8.10;;;6.80;;
3417;SDS011;68007;51.312;12.372;2023-06-19T02:58:12;7.27;;;6.53;;
3417;SDS011;68007;51.312;12.372;2023-06-19T03:00:39;7.07;;;6.30;;
3417;SDS011;68007;51.312;12.372;2023-06-19T03:03:07;9.43;;;7.53;;
3417;SDS011;68007;51.312;12.372;2023-06-19T03:05:36;7.83;;;7.03;;
3417;SDS011;68007;51.312;12.372;2023-06-19T03:08:04;11.13;;;7.10;;
3417;SDS011;68007;51.312;12.372;2023-06-19T03:10:32;7.70;;;6.80;;
3417;SDS011;68007;51.312;12.372;2023-06-19T03:13:00;9.70;;;7.40;;
3417;SDS011;68007;51.312;12.372;2023-06-19T03:15:27;13.77;;;7.37;;
3417;SDS011;68007;51.312;12.372;2023-06-19T03:17:55;8.03;;;7.27;;
3417;SDS011;68007;51.312;12.372;2023-06-19T03:20:22;8.73;;;6.97;;
3417;SDS011;68007;51.312;12.372;2023-06-19T03:22:51;7.83;;;7.07;;
3417;SDS011;68007;51.312;12.372;2023-06-19T03:25:19;9.97;;;7.80;;
3417;SDS011;68007;51.312;12.372;2023-06-19T03:27:46;11.23;;;7.50;;
3417;SDS011;68007;51.312;12.372;2023-06-19T03:30:14;18.67;;;7.70;;
3417;SDS011;68007;51.312;12.372;2023-06-19T03:32:44;10.23;;;7.90;;
3417;SDS011;68007;51.312;12.372;2023-06-19T03:35:12;9.93;;;7.67;;
3417;SDS011;68007;51.312;12.372;2023-06-19T03:37:40;8.33;;;7.27;;
3417;SDS011;68007;51.312;12.372;2023-06-19T03:40:10;8.73;;;7.50;;
3417;SDS011;68007;51.312;12.372;2023-06-19T03:42:39;8.83;;;7.50;;
3417;SDS011;68007;51.312;12.372;2023-06-19T03:45:07;9.23;;;7.43;;
3417;SDS011;68007;51.312;12.372;2023-06-19T03:47:35;10.63;;;8.20;;
3417;SDS011;68007;51.312;12.372;2023-06-19T03:50:02;9.23;;;7.60;;
3417;SDS011;68007;51.312;12.372;2023-06-19T03:52:35;9.90;;;8.30;;
3417;SDS011;68007;51.312;12.372;2023-06-19T03:55:03;11.70;;;7.60;;
3417;SDS011;68007;51.312;12.372;2023-06-19T03:57:33;8.17;;;7.47;;
3417;SDS011;68007;51.312;12.372;2023-06-19T04:00:00;11.40;;;7.60;;
3417;SDS011;68007;51.312;12.372;2023-06-19T04:02:31;9.37;;;8.00;;
3417;SDS011;68007;51.312;12.372;2023-06-19T04:04:58;8.20;;;7.37;;
3417;SDS011;68007;51.312;12.372;2023-06-19T04:07:26;9.50;;;8.00;;
3417;SDS011;68007;51.312;12.372;2023-06-19T04:09:54;8.87;;;7.57;;
3417;SDS011;68007;51.312;12.372;2023-06-19T04:12:21;8.30;;;7.50;;
3417;SDS011;68007;51.312;12.372;2023-06-19T04:14:50;10.93;;;7.33;;
3417;SDS011;68007;51.312;12.372;2023-06-19T04:17:18;8.60;;;7.60;;
3417;SDS011;68007;51.312;12.372;2023-06-19T04:19:45;8.27;;;6.93;;
3417;SDS011;68007;51.312;12.372;2023-06-19T04:22:13;11.70;;;7.87;;
3417;SDS011;68007;51.312;12.372;2023-06-19T04:24:40;8.63;;;7.73;;
3417;SDS011;68007;51.312;12.372;2023-06-19T04:27:08;9.90;;;7.87;;
3417;SDS011;68007;51.312;12.372;2023-06-19T04:29:35;8.60;;;7.73;;
3417;SDS011;68007;51.312;12.372;2023-06-19T04:32:05;11.43;;;8.17;;
3417;SDS011;68007;51.312;12.372;2023-06-19T04:34:36;7.60;;;6.90;;
3417;SDS011;68007;51.312;12.372;2023-06-19T04:37:05;7.83;;;7.03;;
3417;SDS011;68007;51.312;12.372;2023-06-19T04:39:33;8.57;;;7.57;;
3417;SDS011;68007;51.312;12.372;2023-06-19T04:42:01;9.27;;;7.93;;
3417;SDS011;68007;51.312;12.372;2023-06-19T04:44:28;10.07;;;7.30;;
3417;SDS011;68007;51.312;12.372;2023-06-19T04:46:59;8.10;;;7.30;;
3417;SDS011;68007;51.312;12.372;2023-06-19T04:49:29;10.87;;;9.70;;
3417;SDS011;68007;51.312;12.372;2023-06-19T04:51:57;10.73;;;8.80;;
3417;SDS011;68007;51.312;12.372;2023-06-19T04:54:25;9.90;;;7.93;;
3417;SDS011;68007;51.312;12.372;2023-06-19T04:56:52;10.50;;;7.47;;
3417;SDS011;68007;51.312;12.372;2023-06-19T04:59:20;7.87;;;6.90;;
3417;SDS011;68007;51.312;12.372;2023-06-19T05:01:47;10.33;;;7.60;;
3417;SDS011;68007;51.312;12.372;2023-06-19T05:04:15;11.00;;;7.80;;
3417;SDS011;68007;51.312;12.372;2023-06-19T05:06:44;8.33;;;7.03;;
3417;SDS011;68007;51.312;12.372;2023-06-19T05:09:11;10.83;;;8.10;;
3417;SDS011;68007;51.312;12.372;2023-06-19T05:11:39;13.63;;;8.10;;
3417;SDS011;68007;51.312;12.372;2023-06-19T05:14:06;11.10;;;7.77;;
3417;SDS011;68007;51.312;12.372;2023-06-19T05:16:34;9.03;;;7.93;;
3417;SDS011;68007;51.312;12.372;2023-06-19T05:19:01;10.07;;;7.13;;
3417;SDS011;68007;51.312;12.372;2023-06-19T05:21:29;8.70;;;7.80;;
3417;SDS011;68007;51.312;12.372;2023-06-19T05:23:58;12.20;;;7.93;;
3417;SDS011;68007;51.312;12.372;2023-06-19T05:26:25;14.40;;;7.77;;
3417;SDS011;68007;51.312;12.372;2023-06-19T05:28:53;13.00;;;8.20;;
3417;SDS011;68007;51.312;12.372;2023-06-19T05:31:21;11.67;;;7.80;;
3417;SDS011;68007;51.312;12.372;2023-06-19T05:33:48;9.53;;;8.10;;
3417;SDS011;68007;51.312;12.372;2023-06-19T05:36:16;20.30;;;8.97;;
3417;SDS011;68007;51.312;12.372;2023-06-19T05:38:43;9.83;;;8.40;;
3417;SDS011;68007;51.312;12.372;2023-06-19T05:41:13;9.37;;;7.43;;
3417;SDS011;68007;51.312;12.372;2023-06-19T05:43:41;10.93;;;7.03;;
3417;SDS011;68007;51.312;12.372;2023-06-19T05:46:09;12.13;;;8.30;;
3417;SDS011;68007;51.312;12.372;2023-06-19T05:48:37;9.80;;;7.60;;
3417;SDS011;68007;51.312;12.372;2023-06-19T05:51:05;13.17;;;8.83;;
3417;SDS011;68007;51.312;12.372;2023-06-19T05:53:32;9.17;;;7.97;;
3417;SDS011;68007;51.312;12.372;2023-06-19T05:56:00;11.03;;;8.77;;
3417;SDS011;68007;51.312;12.372;2023-06-19T05:58:29;13.73;;;9.37;;
3417;SDS011;68007;51.312;12.372;2023-06-19T06:00:56;10.00;;;7.87;;
3417;SDS011;68007;51.312;12.372;2023-06-19T06:03:24;12.87;;;7.67;;
3417;SDS011;68007;51.312;12.372;2023-06-19T06:05:53;10.40;;;7.90;;
3417;SDS011;68007;51.312;12.372;2023-06-19T06:08:28;8.63;;;7.73;;
3417;SDS011;68007;51.312;12.372;2023-06-19T06:10:55;9.90;;;8.13;;
3417;SDS011;68007;51.312;12.372;2023-06-19T06:13:23;11.10;;;8.50;;
3417;SDS011;68007;51.312;12.372;2023-06-19T06:15:52;17.40;;;8.43;;
3417;SDS011;68007;51.312;12.372;2023-06-19T06:18:19;10.50;;;8.53;;
3417;SDS011;68007;51.312;12.372;2023-06-19T06:20:47;9.60;;;8.60;;
3417;SDS011;68007;51.312;12.372;2023-06-19T06:23:15;9.53;;;8.03;;
3417;SDS011;68007;51.312;12.372;2023-06-19T06:25:42;9.80;;;8.80;;
3417;SDS011;68007;51.312;12.372;2023-06-19T06:28:11;15.70;;;9.10;;
3417;SDS011;68007;51.312;12.372;2023-06-19T06:30:39;13.20;;;9.60;;
3417;SDS011;68007;51.312;12.372;2023-06-19T06:33:07;11.80;;;9.40;;
3417;SDS011;68007;51.312;12.372;2023-06-19T06:35:35;10.43;;;8.50;;
3417;SDS011;68007;51.312;12.372;2023-06-19T06:38:03;12.30;;;8.53;;
3417;SDS011;68007;51.312;12.372;2023-06-19T06:40:30;10.70;;;8.60;;
3417;SDS011;68007;51.312;12.372;2023-06-19T06:42:58;12.40;;;8.30;;
3417;SDS011;68007;51.312;12.372;2023-06-19T06:45:25;10.23;;;8.53;;
3417;SDS011;68007;51.312;12.372;2023-06-19T06:47:53;11.63;;;8.20;;
3417;SDS011;68007;51.312;12.372;2023-06-19T06:50:21;11.33;;;8.77;;
3417;SDS011;68007;51.312;12.372;2023-06-19T06:52:49;8.83;;;7.60;;
3417;SDS011;68007;51.312;12.372;2023-06-19T06:55:17;10.00;;;8.97;;
3417;SDS011;68007;51.312;12.372;2023-06-19T06:57:44;16.00;;;9.07;;
3417;SDS011;68007;51.312;12.372;2023-06-19T07:00:12;11.30;;;8.90;;
3417;SDS011;68007;51.312;12.372;2023-06-19T07:02:40;10.00;;;8.73;;
3417;SDS011;68007;51.312;12.372;2023-06-19T07:05:08;9.57;;;8.10;;
3417;SDS011;68007;51.312;12.372;2023-06-19T07:07:37;15.87;;;8.67;;
3417;SDS011;68007;51.312;12.372;2023-06-19T07:10:05;12.90;;;8.70;;
3417;SDS011;68007;51.312;12.372;2023-06-19T07:12:34;16.00;;;9.40;;
3417;SDS011;68007;51.312;12.372;2023-06-19T07:15:02;11.27;;;8.30;;
3417;SDS011;68007;51.312;12.372;2023-06-19T07:17:29;16.30;;;8.70;;
3417;SDS011;68007;51.312;12.372;2023-06-19T07:19:57;12.53;;;9.70;;
3417;SDS011;68007;51.312;12.372;2023-06-19T07:22:24;16.73;;;9.80;;
3417;SDS011;68007;51.312;12.372;2023-06-19T07:24:53;26.43;;;10.87;;
3417;SDS011;68007;51.312;12.372;2023-06-19T07:27:21;19.87;;;10.33;;
3417;SDS011;68007;51.312;12.372;2023-06-19T07:29:49;17.23;;;10.00;;
3417;SDS011;68007;51.312;12.372;2023-06-19T07:32:17;15.90;;;9.20;;
3417;SDS011;68007;51.312;12.372;2023-06-19T07:34:44;12.10;;;9.00;;
3417;SDS011;68007;51.312;12.372;2023-06-19T07:37:12;12.43;;;9.07;;
3417;SDS011;68007;51.312;12.372;2023-06-19T07:39:43;10.90;;;9.27;;
3417;SDS011;68007;51.312;12.372;2023-06-19T07:42:12;9.50;;;8.50;;
3417;SDS011;68007;51.312;12.372;2023-06-19T07:44:41;11.23;;;8.30;;
3417;SDS011;68007;51.312;12.372;2023-06-19T07:47:08;9.90;;;8.90;;
3417;SDS011;68007;51.312;12.372;2023-06-19T07:49:36;14.70;;;9.20;;
3417;SDS011;68007;51.312;12.372;2023-06-19T07:52:04;14.80;;;8.97;;
3417;SDS011;68007;51.312;12.372;2023-06-19T07:54:35;11.50;;;8.40;;
3417;SDS011;68007;51.312;12.372;2023-06-19T07:57:02;11.60;;;8.77;;
3417;SDS011;68007;51.312;12.372;2023-06-19T07:59:32;10.30;;;8.90;;
3417;SDS011;68007;51.312;12.372;2023-06-19T08:01:59;12.67;;;9.03;;
3417;SDS011;68007;51.312;12.372;2023-06-19T08:04:27;15.53;;;9.30;;
3417;SDS011;68007;51.312;12.372;2023-06-19T08:06:54;12.67;;;8.77;;
3417;SDS011;68007;51.312;12.372;2023-06-19T08:09:22;11.43;;;8.67;;
3417;SDS011;68007;51.312;12.372;2023-06-19T08:11:49;11.93;;;7.83;;
3417;SDS011;68007;51.312;12.372;2023-06-19T08:14:17;14.87;;;8.70;;
3417;SDS011;68007;51.312;12.372;2023-06-19T08:16:46;14.07;;;8.60;;
3417;SDS011;68007;51.312;12.372;2023-06-19T08:19:13;23.40;;;8.70;;
3417;SDS011;68007;51.312;12.372;2023-06-19T08:21:41;9.77;;;8.13;;
3417;SDS011;68007;51.312;12.372;2023-06-19T08:24:08;10.47;;;8.60;;
3417;SDS011;68007;51.312;12.372;2023-06-19T08:26:36;14.80;;;8.60;;
3417;SDS011;68007;51.312;12.372;2023-06-19T08:29:04;11.00;;;7.57;;
3417;SDS011;68007;51.312;12.372;2023-06-19T08:31:31;9.53;;;8.37;;
3417;SDS011;68007;51.312;12.372;2023-06-19T08:34:01;11.53;;;8.43;;
3417;SDS011;68007;51.312;12.372;2023-06-19T08:36:32;13.97;;;7.47;;
3417;SDS011;68007;51.312;12.372;2023-06-19T08:39:00;15.73;;;7.93;;
3417;SDS011;68007;51.312;12.372;2023-06-19T08:41:28;10.40;;;7.83;;
3417;SDS011;68007;51.312;12.372;2023-06-19T08:43:55;13.77;;;8.13;;
3417;SDS011;68007;51.312;12.372;2023-06-19T08:46:23;9.40;;;7.90;;
3417;SDS011;68007;51.312;12.372;2023-06-19T08:48:51;7.90;;;6.93;;
3417;SDS011;68007;51.312;12.372;2023-06-19T08:51:23;10.50;;;7.73;;
3417;SDS011;68007;51.312;12.372;2023-06-19T08:53:54;8.47;;;7.10;;
3417;SDS011;68007;51.312;12.372;2023-06-19T08:56:23;9.73;;;8.37;;
3417;SDS011;68007;51.312;12.372;2023-06-19T08:58:51;13.00;;;7.73;;
3417;SDS011;68007;51.312;12.372;2023-06-19T09:01:18;9.93;;;7.93;;
3417;SDS011;68007;51.312;12.372;2023-06-19T09:03:46;9.47;;;7.10;;
3417;SDS011;68007;51.312;12.372;2023-06-19T09:06:17;7.23;;;6.53;;
3417;SDS011;68007;51.312;12.372;2023-06-19T09:08:56;11.80;;;7.50;;
3417;SDS011;68007;51.312;12.372;2023-06-19T09:11:24;10.80;;;7.30;;
3417;SDS011;68007;51.312;12.372;2023-06-19T09:13:55;7.70;;;6.90;;
3417;SDS011;68007;51.312;12.372;2023-06-19T09:16:23;9.10;;;8.20;;
3417;SDS011;68007;51.312;12.372;2023-06-19T09:19:02;11.80;;;7.60;;
3417;SDS011;68007;51.312;12.372;2023-06-19T09:21:30;10.30;;;7.20;;
3417;SDS011;68007;51.312;12.372;2023-06-19T09:24:03;9.23;;;7.67;;
3417;SDS011;68007;51.312;12.372;2023-06-19T09:26:31;11.93;;;7.20;;
3417;SDS011;68007;51.312;12.372;2023-06-19T09:29:09;8.90;;;7.17;;
3417;SDS011;68007;51.312;12.372;2023-06-19T09:31:37;8.40;;;6.80;;
3417;SDS011;68007;51.312;12.372;2023-06-19T09:34:07;9.20;;;7.17;;
3417;SDS011;68007;51.312;12.372;2023-06-19T09:36:34;8.13;;;7.27;;
3417;SDS011;68007;51.312;12.372;2023-06-19T09:39:04;15.53;;;7.60;;
3417;SDS011;68007;51.312;12.372;2023-06-19T09:41:32;9.80;;;7.00;;
3417;SDS011;68007;51.312;12.372;2023-06-19T09:44:01;11.77;;;7.40;;
3417;SDS011;68007;51.312;12.372;2023-06-19T09:46:37;8.37;;;7.57;;
3417;SDS011;68007;51.312;12.372;2023-06-19T09:49:11;9.37;;;7.40;;
3417;SDS011;68007;51.312;12.372;2023-06-19T09:51:41;7.80;;;7.00;;
3417;SDS011;68007;51.312;12.372;2023-06-19T09:54:10;10.50;;;6.83;;
3417;SDS011;68007;51.312;12.372;2023-06-19T09:56:38;7.93;;;7.13;;
3417;SDS011;68007;51.312;12.372;2023-06-19T09:59:06;8.80;;;7.00;;
3417;SDS011;68007;51.312;12.372;2023-06-19T10:01:35;12.73;;;7.10;;
3417;SDS011;68007;51.312;12.372;2023-06-19T10:04:04;10.63;;;7.63;;
3417;SDS011;68007;51.312;12.372;2023-06-19T10:06:41;11.37;;;8.10;;
3417;SDS011;68007;51.312;12.372;2023-06-19T10:09:13;11.73;;;8.00;;
3417;SDS011;68007;51.312;12.372;2023-06-19T10:11:45;14.03;;;8.27;;
3417;SDS011;68007;51.312;12.372;2023-06-19T10:14:14;10.97;;;7.43;;
3417;SDS011;68007;51.312;12.372;2023-06-19T10:16:44;10.97;;;8.17;;
3417;SDS011;68007;51.312;12.372;2023-06-19T10:19:13;10.53;;;6.90;;
3417;SDS011;68007;51.312;12.372;2023-06-19T10:21:45;10.83;;;8.10;;
3417;SDS011;68007;51.312;12.372;2023-06-19T10:24:15;12.57;;;7.93;;
3417;SDS011;68007;51.312;12.372;2023-06-19T10:26:55;8.57;;;7.63;;
3417;SDS011;68007;51.312;12.372;2023-06-19T10:29:24;11.27;;;8.33;;
3417;SDS011;68007;51.312;12.372;2023-06-19T10:31:53;10.33;;;7.20;;
3417;SDS011;68007;51.312;12.372;2023-06-19T10:34:22;10.50;;;8.20;;
3417;SDS011;68007;51.312;12.372;2023-06-19T10:37:00;9.20;;;7.97;;
3417;SDS011;68007;51.312;12.372;2023-06-19T10:39:30;10.93;;;8.00;;
3417;SDS011;68007;51.312;12.372;2023-06-19T10:41:58;8.47;;;7.57;;
3417;SDS011;68007;51.312;12.372;2023-06-19T10:44:25;15.07;;;8.17;;
3417;SDS011;68007;51.312;12.372;2023-06-19T10:46:53;8.80;;;7.90;;
3417;SDS011;68007;51.312;12.372;2023-06-19T10:49:20;13.60;;;7.70;;
3417;SDS011;68007;51.312;12.372;2023-06-19T10:51:48;10.20;;;8.20;;
3417;SDS011;68007;51.312;12.372;2023-06-19T10:54:19;8.87;;;7.43;;
3417;SDS011;68007;51.312;12.372;2023-06-19T10:59:43;10.20;;;8.63;;
3417;SDS011;68007;51.312;12.372;2023-06-19T11:02:10;10.87;;;7.90;;
3417;SDS011;68007;51.312;12.372;2023-06-19T11:04:38;8.97;;;7.90;;
3417;SDS011;68007;51.312;12.372;2023-06-19T11:07:06;8.50;;;7.60;;
3417;SDS011;68007;51.312;12.372;2023-06-19T11:09:34;12.40;;;8.47;;
3417;SDS011;68007;51.312;12.372;2023-06-19T11:12:04;7.70;;;7.00;;
3417;SDS011;68007;51.312;12.372;2023-06-19T11:14:35;11.77;;;8.30;;
3417;SDS011;68007;51.312;12.372;2023-06-19T11:17:05;8.50;;;7.70;;
3417;SDS011;68007;51.312;12.372;2023-06-19T11:19:33;11.47;;;7.60;;
3417;SDS011;68007;51.312;12.372;2023-06-19T11:22:02;12.63;;;9.23;;
3417;SDS011;68007;51.312;12.372;2023-06-19T11:24:30;9.33;;;7.83;;
3417;SDS011;68007;51.312;12.372;2023-06-19T11:26:57;10.97;;;8.00;;
3417;SDS011;68007;51.312;12.372;2023-06-19T11:29:25;8.13;;;7.33;;
3417;SDS011;68007;51.312;12.372;2023-06-19T11:32:05;9.00;;;8.10;;
3417;SDS011;68007;51.312;12.372;2023-06-19T11:34:35;9.00;;;8.10;;
3417;SDS011;68007;51.312;12.372;2023-06-19T11:37:11;11.60;;;8.10;;
3417;SDS011;68007;51.312;12.372;2023-06-19T11:39:39;11.73;;;8.10;;
3417;SDS011;68007;51.312;12.372;2023-06-19T11:42:07;15.17;;;8.00;;
3417;SDS011;68007;51.312;12.372;2023-06-19T11:44:35;10.17;;;8.20;;
3417;SDS011;68007;51.312;12.372;2023-06-19T11:47:02;9.43;;;8.47;;
3417;SDS011;68007;51.312;12.372;2023-06-19T11:49:34;9.20;;;7.70;;
3417;SDS011;68007;51.312;12.372;2023-06-19T11:52:02;15.37;;;7.70;;
3417;SDS011;68007;51.312;12.372;2023-06-19T11:54:30;12.90;;;8.80;;
3417;SDS011;68007;51.312;12.372;2023-06-19T11:56:58;8.90;;;8.00;;
3417;SDS011;68007;51.312;12.372;2023-06-19T11:59:28;10.70;;;8.43;;
3417;SDS011;68007;51.312;12.372;2023-06-19T12:01:56;9.57;;;8.10;;
3417;SDS011;68007;51.312;12.372;2023-06-19T12:04:25;12.60;;;8.97;;
3417;SDS011;68007;51.312;12.372;2023-06-19T12:06:53;9.90;;;8.60;;
3417;SDS011;68007;51.312;12.372;2023-06-19T12:09:20;9.13;;;8.13;;
3417;SDS011;68007;51.312;12.372;2023-06-19T12:11:48;9.00;;;8.10;;
3417;SDS011;68007;51.312;12.372;2023-06-19T12:14:16;9.63;;;8.63;;
3417;SDS011;68007;51.312;12.372;2023-06-19T12:16:45;9.70;;;8.00;;
3417;SDS011;68007;51.312;12.372;2023-06-19T12:19:12;9.47;;;8.47;;
3417;SDS011;68007;51.312;12.372;2023-06-19T12:21:41;12.83;;;8.10;;
3417;SDS011;68007;51.312;12.372;2023-06-19T12:24:09;9.33;;;8.20;;
3417;SDS011;68007;51.312;12.372;2023-06-19T12:26:36;11.70;;;8.90;;
3417;SDS011;68007;51.312;12.372;2023-06-19T12:29:04;10.83;;;8.43;;
3417;SDS011;68007;51.312;12.372;2023-06-19T12:31:32;14.83;;;9.50;;
3417;SDS011;68007;51.312;12.372;2023-06-19T12:34:01;11.87;;;8.80;;
3417;SDS011;68007;51.312;12.372;2023-06-19T12:36:29;14.10;;;8.63;;
3417;SDS011;68007;51.312;12.372;2023-06-19T12:38:59;10.87;;;9.20;;
3417;SDS011;68007;51.312;12.372;2023-06-19T12:41:29;14.70;;;8.57;;
3417;SDS011;68007;51.312;12.372;2023-06-19T12:43:56;11.77;;;8.07;;
3417;SDS011;68007;51.312;12.372;2023-06-19T12:46:23;14.67;;;8.00;;
3417;SDS011;68007;51.312;12.372;2023-06-19T12:48:51;9.87;;;7.83;;
3417;SDS011;68007;51.312;12.372;2023-06-19T12:51:18;9.10;;;8.20;;
3417;SDS011;68007;51.312;12.372;2023-06-19T12:53:46;10.40;;;8.93;;
3417;SDS011;68007;51.312;12.372;2023-06-19T12:56:15;10.57;;;8.40;;
3417;SDS011;68007;51.312;12.372;2023-06-19T12:58:42;10.73;;;8.00;;
3417;SDS011;68007;51.312;12.372;2023-06-19T13:01:10;8.10;;;7.30;;
3417;SDS011;68007;51.312;12.372;2023-06-19T13:03:37;10.40;;;9.27;;
3417;SDS011;68007;51.312;12.372;2023-06-19T13:06:05;9.00;;;8.10;;
3417;SDS011;68007;51.312;12.372;2023-06-19T13:08:32;9.70;;;8.00;;
3417;SDS011;68007;51.312;12.372;2023-06-19T13:11:00;8.23;;;7.43;;
3417;SDS011;68007;51.312;12.372;2023-06-19T13:13:28;9.80;;;7.60;;
3417;SDS011;68007;51.312;12.372;2023-06-19T13:15:56;9.33;;;7.67;;
3417;SDS011;68007;51.312;12.372;2023-06-19T13:18:24;9.70;;;7.77;;
3417;SDS011;68007;51.312;12.372;2023-06-19T13:20:51;10.27;;;7.40;;
3417;SDS011;68007;51.312;12.372;2023-06-19T13:23:19;11.40;;;8.20;;
3417;SDS011;68007;51.312;12.372;2023-06-19T13:25:46;9.03;;;8.13;;
3417;SDS011;68007;51.312;12.372;2023-06-19T13:28:14;9.17;;;7.70;;
3417;SDS011;68007;51.312;12.372;2023-06-19T13:30:43;9.50;;;7.50;;
3417;SDS011;68007;51.312;12.372;2023-06-19T13:33:10;9.00;;;8.10;;
3417;SDS011;68007;51.312;12.372;2023-06-19T13:35:38;7.30;;;6.60;;
3417;SDS011;68007;51.312;12.372;2023-06-19T13:38:05;7.93;;;6.40;;
3417;SDS011;68007;51.312;12.372;2023-06-19T13:40:33;7.40;;;6.70;;
3417;SDS011;68007;51.312;12.372;2023-06-19T13:43:01;8.67;;;7.87;;
3417;SDS011;68007;51.312;12.372;2023-06-19T13:45:29;9.67;;;8.57;;
3417;SDS011;68007;51.312;12.372;2023-06-19T13:47:58;9.07;;;7.40;;
3417;SDS011;68007;51.312;12.372;2023-06-19T13:50:27;7.63;;;6.40;;
3417;SDS011;68007;51.312;12.372;2023-06-19T13:52:54;7.63;;;6.90;;
3417;SDS011;68007;51.312;12.372;2023-06-19T13:55:22;7.60;;;6.90;;
3417;SDS011;68007;51.312;12.372;2023-06-19T13:57:49;8.53;;;7.63;;
3417;SDS011;68007;51.312;12.372;2023-06-19T14:00:18;9.23;;;7.10;;
3417;SDS011;68007;51.312;12.372;2023-06-19T14:02:46;8.80;;;6.73;;
3417;SDS011;68007;51.312;12.372;2023-06-19T14:05:15;10.50;;;7.43;;
3417;SDS011;68007;51.312;12.372;2023-06-19T14:07:43;8.00;;;7.17;;
3417;SDS011;68007;51.312;12.372;2023-06-19T14:10:10;10.23;;;7.20;;
3417;SDS011;68007;51.312;12.372;2023-06-19T14:12:38;8.37;;;7.57;;
3417;SDS011;68007;51.312;12.372;2023-06-19T14:15:06;8.23;;;7.47;;
3417;SDS011;68007;51.312;12.372;2023-06-19T14:17:34;7.40;;;6.70;;
3417;SDS011;68007;51.312;12.372;2023-06-19T14:20:02;7.73;;;6.80;;
3417;SDS011;68007;51.312;12.372;2023-06-19T14:22:32;7.63;;;6.93;;
3417;SDS011;68007;51.312;12.372;2023-06-19T14:25:00;7.87;;;7.03;;
3417;SDS011;68007;51.312;12.372;2023-06-19T14:27:30;10.10;;;7.20;;
3417;SDS011;68007;51.312;12.372;2023-06-19T14:29:58;8.23;;;6.70;;
3417;SDS011;68007;51.312;12.372;2023-06-19T14:32:25;8.63;;;6.90;;
3417;SDS011;68007;51.312;12.372;2023-06-19T14:34:53;6.60;;;6.00;;
3417;SDS011;68007;51.312;12.372;2023-06-19T14:37:23;7.00;;;6.20;;
3417;SDS011;68007;51.312;12.372;2023-06-19T14:39:52;9.70;;;6.53;;
3417;SDS011;68007;51.312;12.372;2023-06-19T14:42:20;8.27;;;6.53;;
3417;SDS011;68007;51.312;12.372;2023-06-19T14:44:48;6.30;;;5.70;;
3417;SDS011;68007;51.312;12.372;2023-06-19T14:47:15;9.07;;;6.10;;
3417;SDS011;68007;51.312;12.372;2023-06-19T14:49:43;6.93;;;6.23;;
3417;SDS011;68007;51.312;12.372;2023-06-19T14:52:10;6.83;;;6.13;;
3417;SDS011;68007;51.312;12.372;2023-06-19T14:54:38;8.90;;;6.37;;